createdAt,value
2023-09-27T00:01:18.590Z,6.83
2023-09-27T00:04:22.591Z,11.87
2023-09-27T00:07:25.789Z,6.00
2023-09-27T00:10:29.131Z,8.37
2023-09-27T00:13:31.753Z,5.87
2023-09-27T00:16:34.465Z,7.00
2023-09-27T00:19:38.488Z,7.17
2023-09-27T00:22:41.324Z,10.37
2023-09-27T00:25:44.003Z,7.27
2023-09-27T00:28:46.682Z,11.43
2023-09-27T00:31:50.093Z,6.57
2023-09-27T00:34:54.306Z,7.93
2023-09-27T00:37:57.680Z,6.70
2023-09-27T00:41:00.377Z,11.83
2023-09-27T00:44:03.092Z,5.33
2023-09-27T00:47:06.926Z,7.33
2023-09-27T00:50:11.602Z,7.93
2023-09-27T00:53:14.416Z,6.83
2023-09-27T00:56:17.875Z,6.73
2023-09-27T00:59:21.244Z,6.13
2023-09-27T01:02:24.479Z,5.77
2023-09-27T01:05:28.656Z,7.03
2023-09-27T01:08:31.837Z,7.53
2023-09-27T01:11:34.977Z,8.67
2023-09-27T01:14:37.656Z,9.00
2023-09-27T01:17:54.402Z,8.80
2023-09-27T01:20:58.755Z,6.63
2023-09-27T01:24:03.172Z,7.00
2023-09-27T01:27:07.853Z,7.63
2023-09-27T01:30:11.079Z,7.03
2023-09-27T01:33:14.243Z,8.83
2023-09-27T01:36:16.953Z,8.27
2023-09-27T01:39:20.975Z,8.77
2023-09-27T01:42:23.995Z,6.77
2023-09-27T01:45:26.805Z,5.50
2023-09-27T01:48:29.654Z,6.60
2023-09-27T01:51:32.555Z,9.30
2023-09-27T01:54:36.537Z,9.80
2023-09-27T01:57:39.172Z,6.93
2023-09-27T02:00:41.864Z,5.63
2023-09-27T02:03:45.794Z,6.33
2023-09-27T02:06:48.552Z,7.43
2023-09-27T02:09:52.591Z,10.37
2023-09-27T02:12:55.273Z,10.43
2023-09-27T02:15:57.985Z,9.70
2023-09-27T02:19:00.736Z,7.43
2023-09-27T02:22:03.903Z,7.17
2023-09-27T02:25:12.543Z,8.30
2023-09-27T02:28:15.230Z,8.90
2023-09-27T02:31:18.561Z,8.57
2023-09-27T02:34:21.248Z,6.30
2023-09-27T02:37:23.873Z,7.17
2023-09-27T02:40:28.413Z,9.37
2023-09-27T02:43:31.028Z,8.87
2023-09-27T02:46:33.854Z,9.83
2023-09-27T02:49:36.926Z,11.43
2023-09-27T02:52:40.332Z,10.23
2023-09-27T02:55:44.458Z,9.20
2023-09-27T02:58:47.131Z,7.80
2023-09-27T03:01:49.797Z,7.93
2023-09-27T03:04:52.463Z,9.77
2023-09-27T03:07:55.107Z,7.17
2023-09-27T03:11:04.450Z,7.20
2023-09-27T03:14:07.594Z,7.87
2023-09-27T03:17:10.396Z,6.83
2023-09-27T03:20:17.624Z,9.30
2023-09-27T03:23:21.154Z,7.30
2023-09-27T03:26:26.011Z,9.90
2023-09-27T03:29:28.733Z,8.30
2023-09-27T03:32:33.007Z,9.88
2023-09-27T03:35:35.903Z,9.50
2023-09-27T03:38:38.711Z,8.13
2023-09-27T03:41:43.197Z,10.13
2023-09-27T03:44:45.864Z,8.17
2023-09-27T03:47:49.353Z,12.07
2023-09-27T03:50:52.156Z,7.67
2023-09-27T03:53:54.794Z,9.30
2023-09-27T03:56:58.900Z,12.07
2023-09-27T04:00:01.559Z,9.13
2023-09-27T04:03:04.638Z,12.33
2023-09-27T04:06:07.390Z,8.97
2023-09-27T04:09:10.994Z,8.33
2023-09-27T04:12:15.477Z,9.87
2023-09-27T04:15:18.781Z,12.90
2023-09-27T04:18:21.490Z,10.63
2023-09-27T04:21:24.287Z,10.20
2023-09-27T04:24:27.924Z,11.00
2023-09-27T04:27:31.966Z,11.90
2023-09-27T04:30:34.746Z,9.53
2023-09-27T04:33:37.478Z,9.87
2023-09-27T04:36:40.183Z,13.27
2023-09-27T04:39:42.831Z,11.37
2023-09-27T04:42:48.471Z,9.07
2023-09-27T04:45:52.852Z,9.13
2023-09-27T04:48:55.534Z,10.40
2023-09-27T04:51:58.180Z,11.47
2023-09-27T04:55:00.864Z,12.07
2023-09-27T04:58:05.404Z,9.67
2023-09-27T05:01:08.161Z,9.73
2023-09-27T05:04:10.892Z,12.17
2023-09-27T05:07:13.609Z,8.13
2023-09-27T05:10:16.493Z,12.33
2023-09-27T05:13:22.632Z,12.13
2023-09-27T05:16:25.408Z,10.27
2023-09-27T05:19:28.080Z,11.17
2023-09-27T05:22:30.762Z,15.73
2023-09-27T05:25:33.510Z,12.50
2023-09-27T05:28:37.477Z,13.50
2023-09-27T05:31:40.158Z,14.03
2023-09-27T05:34:42.869Z,16.40
2023-09-27T05:37:45.932Z,13.07
2023-09-27T05:40:48.602Z,12.27
2023-09-27T05:43:52.582Z,14.50
2023-09-27T05:46:55.318Z,12.27
2023-09-27T05:49:58.406Z,12.03
2023-09-27T05:53:01.267Z,14.47
2023-09-27T05:56:04.706Z,12.20
2023-09-27T05:59:12.593Z,13.37
2023-09-27T06:02:17.916Z,18.97
2023-09-27T06:05:21.545Z,15.97
2023-09-27T06:08:24.301Z,14.23
2023-09-27T06:11:27.135Z,19.67
2023-09-27T06:14:31.207Z,16.07
2023-09-27T06:17:34.244Z,17.87
2023-09-27T06:20:39.963Z,16.50
2023-09-27T06:23:43.024Z,13.83
2023-09-27T06:26:45.761Z,13.50
2023-09-27T06:29:49.749Z,14.33
2023-09-27T06:32:52.658Z,16.93
2023-09-27T06:35:55.405Z,13.40
2023-09-27T06:38:58.097Z,16.73
2023-09-27T06:42:00.717Z,13.10
2023-09-27T06:45:05.300Z,14.43
2023-09-27T06:48:08.426Z,14.67
2023-09-27T06:51:12.713Z,14.17
2023-09-27T06:54:15.475Z,13.47
2023-09-27T06:57:18.517Z,13.63
2023-09-27T07:00:25.711Z,14.80
2023-09-27T07:03:34.574Z,15.27
2023-09-27T07:06:37.347Z,19.37
2023-09-27T07:09:41.794Z,18.47
2023-09-27T07:12:44.907Z,18.87
2023-09-27T07:15:49.162Z,18.37
2023-09-27T07:18:52.214Z,14.83
2023-09-27T07:21:55.114Z,12.97
2023-09-27T07:24:57.758Z,16.63
2023-09-27T07:28:02.766Z,14.23
2023-09-27T07:31:06.877Z,10.73
2023-09-27T07:34:09.610Z,11.90
2023-09-27T07:37:12.819Z,11.13
2023-09-27T07:40:16.603Z,13.50
2023-09-27T07:43:19.339Z,8.67
2023-09-27T07:46:23.354Z,9.33
2023-09-27T07:49:26.098Z,11.10
2023-09-27T07:52:28.806Z,9.63
2023-09-27T07:55:33.514Z,7.83
2023-09-27T07:58:36.232Z,7.43
2023-09-27T08:01:40.305Z,8.93
2023-09-27T08:04:43.048Z,12.27
2023-09-27T08:07:46.484Z,6.33
2023-09-27T08:10:50.932Z,8.50
2023-09-27T08:13:54.913Z,8.37
2023-09-27T08:16:59.085Z,5.97
2023-09-27T08:20:03.362Z,8.37
2023-09-27T08:23:06.785Z,6.20
2023-09-27T08:26:13.423Z,6.20
2023-09-27T08:29:16.358Z,6.77
2023-09-27T08:32:20.508Z,4.73
2023-09-27T08:35:23.536Z,7.20
2023-09-27T08:38:26.305Z,9.03
2023-09-27T08:41:30.285Z,5.97
2023-09-27T08:44:33.608Z,6.97
2023-09-27T08:47:38.040Z,6.37
2023-09-27T08:50:41.282Z,5.67
2023-09-27T08:53:44.155Z,7.40
2023-09-27T08:56:50.280Z,9.13
2023-09-27T08:59:53.264Z,5.97
2023-09-27T09:03:00.487Z,7.05
2023-09-27T09:06:06.210Z,5.43
2023-09-27T09:09:12.311Z,6.03
2023-09-27T09:12:15.133Z,7.07
2023-09-27T09:15:30.248Z,5.25
2023-09-27T09:18:37.718Z,6.43
2023-09-27T09:21:40.532Z,5.07
2023-09-27T09:24:44.880Z,8.50
2023-09-27T09:28:03.968Z,8.30
2023-09-27T09:31:06.870Z,4.78
2023-09-27T09:34:12.718Z,7.32
2023-09-27T09:37:19.574Z,4.13
2023-09-27T09:40:22.239Z,4.63
2023-09-27T09:43:35.447Z,5.32
2023-09-27T09:46:38.247Z,5.78
2023-09-27T09:49:43.071Z,6.10
2023-09-27T09:52:54.550Z,4.65
2023-09-27T09:56:25.169Z,6.97
2023-09-27T09:59:29.613Z,5.63
2023-09-27T10:02:43.240Z,5.75
2023-09-27T10:05:51.089Z,6.45
2023-09-27T10:08:55.142Z,6.18
2023-09-27T10:11:59.236Z,7.63
2023-09-27T10:15:03.431Z,6.55
2023-09-27T10:18:35.084Z,6.78
2023-09-27T10:22:02.740Z,7.57
2023-09-27T10:25:05.867Z,4.13
2023-09-27T10:28:09.992Z,6.80
2023-09-27T10:31:18.702Z,5.22
2023-09-27T10:34:42.481Z,4.78
2023-09-27T10:38:05.650Z,4.07
2023-09-27T10:41:08.540Z,6.40
2023-09-27T10:44:11.317Z,5.85
2023-09-27T10:47:15.190Z,5.70
2023-09-27T10:50:29.007Z,8.02
2023-09-27T10:53:34.933Z,5.20
2023-09-27T10:56:40.197Z,6.68
2023-09-27T10:59:45.262Z,5.93
2023-09-27T11:02:47.968Z,4.20
2023-09-27T11:05:50.682Z,6.85
2023-09-27T11:09:05.297Z,5.90
2023-09-27T11:12:08.165Z,4.45
2023-09-27T11:15:13.066Z,6.70
2023-09-27T11:18:16.101Z,4.68
2023-09-27T11:21:18.849Z,7.07
2023-09-27T11:24:22.854Z,6.03
2023-09-27T11:27:25.573Z,7.75
2023-09-27T11:30:31.213Z,5.35
2023-09-27T11:33:34.856Z,4.63
2023-09-27T11:36:41.728Z,6.57
2023-09-27T11:39:53.696Z,7.78
2023-09-27T11:42:56.304Z,6.53
2023-09-27T11:45:59.302Z,9.02
2023-09-27T11:49:09.464Z,3.33
2023-09-27T11:52:12.526Z,4.32
2023-09-27T11:55:17.331Z,5.20
2023-09-27T11:58:20.007Z,4.93
2023-09-27T12:01:22.663Z,3.45
2023-09-27T12:04:25.402Z,6.90
2023-09-27T12:07:28.669Z,5.60
2023-09-27T12:10:33.053Z,6.30
2023-09-27T12:13:35.667Z,8.90
2023-09-27T12:16:38.374Z,5.65
2023-09-27T12:19:41.646Z,7.78
2023-09-27T12:22:44.500Z,9.60
2023-09-27T12:25:48.536Z,7.85
2023-09-27T12:28:51.139Z,6.28
2023-09-27T12:31:53.806Z,3.42
2023-09-27T12:34:56.452Z,3.50
2023-09-27T12:38:00.580Z,4.55
2023-09-27T12:41:06.083Z,5.25
2023-09-27T12:44:08.899Z,5.82
2023-09-27T12:47:15.310Z,3.92
2023-09-27T12:50:21.319Z,6.05
2023-09-27T12:53:24.044Z,3.92
2023-09-27T12:56:28.495Z,6.18
2023-09-27T12:59:31.319Z,4.18
2023-09-27T13:02:34.400Z,4.63
2023-09-27T13:05:37.962Z,5.00
2023-09-27T13:08:40.758Z,3.50
2023-09-27T13:11:45.150Z,4.47
2023-09-27T13:14:47.967Z,3.60
2023-09-27T13:17:50.610Z,3.95
2023-09-27T13:20:53.409Z,3.75
2023-09-27T13:23:56.114Z,5.50
2023-09-27T13:27:00.225Z,5.70
2023-09-27T13:30:04.357Z,4.05
2023-09-27T13:33:07.117Z,4.60
2023-09-27T13:36:09.837Z,3.20
2023-09-27T13:39:15.596Z,2.65
2023-09-27T13:42:19.721Z,3.90
2023-09-27T13:45:22.705Z,5.10
2023-09-27T13:48:25.458Z,6.93
2023-09-27T13:51:28.103Z,3.45
2023-09-27T13:54:30.734Z,4.32
2023-09-27T13:57:34.698Z,5.40
2023-09-27T14:00:37.407Z,2.42
2023-09-27T14:03:40.692Z,4.22
2023-09-27T14:06:43.695Z,5.25
2023-09-27T14:09:46.381Z,4.22
2023-09-27T14:12:51.846Z,3.63
2023-09-27T14:15:54.803Z,4.18
2023-09-27T14:18:58.912Z,5.78
2023-09-27T14:22:01.581Z,4.85
2023-09-27T14:25:04.943Z,5.57
2023-09-27T14:28:08.966Z,5.13
2023-09-27T14:31:12.308Z,3.33
2023-09-27T14:34:15.606Z,6.78
2023-09-27T14:37:18.311Z,4.70
2023-09-27T14:40:21.760Z,5.72
2023-09-27T14:43:25.767Z,4.40
2023-09-27T14:46:28.546Z,3.63
2023-09-27T14:49:31.285Z,4.38
2023-09-27T14:52:34.229Z,3.95
2023-09-27T14:55:36.910Z,5.10
2023-09-27T14:58:41.225Z,3.20
2023-09-27T15:01:44.282Z,8.80
2023-09-27T15:04:47.552Z,5.60
2023-09-27T15:07:50.769Z,5.78
2023-09-27T15:10:53.554Z,3.83
2023-09-27T15:13:59.319Z,4.90
2023-09-27T15:17:02.043Z,5.45
2023-09-27T15:20:06.615Z,3.17
2023-09-27T15:23:09.726Z,4.45
2023-09-27T15:26:12.669Z,6.07
2023-09-27T15:29:16.840Z,5.22
2023-09-27T15:32:19.589Z,4.88
2023-09-27T15:35:22.265Z,9.32
2023-09-27T15:38:26.127Z,8.23
2023-09-27T15:41:29.196Z,3.97
2023-09-27T15:44:38.960Z,7.45
2023-09-27T15:47:41.634Z,5.15
2023-09-27T15:50:44.685Z,6.70
2023-09-27T15:53:47.303Z,4.00
2023-09-27T15:56:51.364Z,3.40
2023-09-27T15:59:55.357Z,4.10
2023-09-27T16:02:58.261Z,4.35
2023-09-27T16:06:01.962Z,5.97
2023-09-27T16:09:06.259Z,3.83
2023-09-27T16:12:09.055Z,7.95
2023-09-27T16:15:13.242Z,4.85
2023-09-27T16:18:17.359Z,4.72
2023-09-27T16:21:20.510Z,11.38
2023-09-27T16:24:23.556Z,6.38
2023-09-27T16:27:26.236Z,5.45
2023-09-27T16:30:31.498Z,6.00
2023-09-27T16:33:35.434Z,4.70
2023-09-27T16:36:38.131Z,5.30
2023-09-27T16:39:40.792Z,5.25
2023-09-27T16:42:43.454Z,6.18
2023-09-27T16:45:47.458Z,4.30
2023-09-27T16:48:50.400Z,5.40
2023-09-27T16:51:54.025Z,6.80
2023-09-27T16:54:56.768Z,6.85
2023-09-27T16:57:59.417Z,7.13
2023-09-27T17:01:03.796Z,6.97
2023-09-27T17:04:07.116Z,6.15
2023-09-27T17:07:10.811Z,10.45
2023-09-27T17:10:13.819Z,5.20
2023-09-27T17:13:16.530Z,7.60
2023-09-27T17:16:24.463Z,5.28
2023-09-27T17:19:28.491Z,6.80
2023-09-27T17:22:31.241Z,10.63
2023-09-27T17:25:34.659Z,6.38
2023-09-27T17:28:37.349Z,7.03
2023-09-27T17:31:42.134Z,6.72
2023-09-27T17:34:44.894Z,7.88
2023-09-27T17:37:47.634Z,8.18
2023-09-27T17:40:50.945Z,5.38
2023-09-27T17:43:54.054Z,7.95
2023-09-27T17:46:59.329Z,6.53
2023-09-27T17:50:02.081Z,10.60
2023-09-27T17:53:05.846Z,7.03
2023-09-27T17:56:09.754Z,5.50
2023-09-27T17:59:12.617Z,6.00
2023-09-27T18:02:17.479Z,6.03
2023-09-27T18:05:20.170Z,8.83
2023-09-27T18:08:22.835Z,9.33
2023-09-27T18:11:25.455Z,11.03
2023-09-27T18:14:28.115Z,7.50
2023-09-27T18:17:32.274Z,7.57
2023-09-27T18:20:38.510Z,4.30
2023-09-27T18:23:41.347Z,8.00
2023-09-27T18:26:44.547Z,5.63
2023-09-27T18:29:47.553Z,8.67
2023-09-27T18:32:51.617Z,10.53
2023-09-27T18:35:54.284Z,7.23
2023-09-27T18:38:57.052Z,8.87
2023-09-27T18:41:59.792Z,5.60
2023-09-27T18:45:02.451Z,5.83
2023-09-27T18:48:09.299Z,7.93
2023-09-27T18:51:12.112Z,4.43
2023-09-27T18:54:14.950Z,5.67
2023-09-27T18:57:17.593Z,4.77
2023-09-27T19:00:20.256Z,11.67
2023-09-27T19:03:25.182Z,5.27
2023-09-27T19:06:27.835Z,5.90
2023-09-27T19:09:30.460Z,6.33
2023-09-27T19:12:33.132Z,6.63
2023-09-27T19:15:35.784Z,6.00
2023-09-27T19:18:39.855Z,5.97
2023-09-27T19:21:43.480Z,4.80
2023-09-27T19:24:46.127Z,4.87
2023-09-27T19:27:49.015Z,3.73
2023-09-27T19:30:51.854Z,6.20
2023-09-27T19:33:57.147Z,6.60
2023-09-27T19:37:00.154Z,5.60
2023-09-27T19:40:03.534Z,6.30
2023-09-27T19:43:06.170Z,4.77
2023-09-27T19:46:08.975Z,7.37
2023-09-27T19:49:13.628Z,7.20
2023-09-27T19:52:16.362Z,5.73
2023-09-27T19:55:18.977Z,6.43
2023-09-27T19:58:21.624Z,4.87
2023-09-27T20:01:28.477Z,5.33
2023-09-27T20:04:32.733Z,6.03
2023-09-27T20:07:35.429Z,5.40
2023-09-27T20:10:38.130Z,6.30
2023-09-27T20:13:40.969Z,6.40
2023-09-27T20:16:43.807Z,6.17
2023-09-27T20:19:47.942Z,6.30
2023-09-27T20:22:50.673Z,10.63
2023-09-27T20:25:53.520Z,7.10
2023-09-27T20:28:56.204Z,5.77
2023-09-27T20:31:58.994Z,6.80
2023-09-27T20:35:05.003Z,5.47
2023-09-27T20:38:09.331Z,5.60
2023-09-27T20:41:12.086Z,5.03
2023-09-27T20:44:14.744Z,5.20
2023-09-27T20:47:17.733Z,6.80
2023-09-27T20:50:21.782Z,7.97
2023-09-27T20:53:24.867Z,6.70
2023-09-27T20:56:27.492Z,9.57
2023-09-27T20:59:31.373Z,4.90
2023-09-27T21:02:34.057Z,13.03
2023-09-27T21:05:38.133Z,13.43
2023-09-27T21:08:40.736Z,6.83
2023-09-27T21:11:43.437Z,8.97
2023-09-27T21:14:46.489Z,6.70
2023-09-27T21:17:49.413Z,4.90
2023-09-27T21:20:53.715Z,5.83
2023-09-27T21:23:57.336Z,8.93
2023-09-27T21:27:00.425Z,6.70
2023-09-27T21:30:04.809Z,7.20
2023-09-27T21:33:07.578Z,6.80
2023-09-27T21:36:11.608Z,6.47
2023-09-27T21:39:14.270Z,7.70
2023-09-27T21:42:17.780Z,5.43
2023-09-27T21:45:20.434Z,8.03
2023-09-27T21:48:23.656Z,4.87
2023-09-27T21:51:27.691Z,7.53
2023-09-27T21:54:30.394Z,8.50
2023-09-27T21:57:33.016Z,5.93
2023-09-27T22:00:35.955Z,6.30
2023-09-27T22:03:38.677Z,5.97
2023-09-27T22:06:45.567Z,7.47
2023-09-27T22:09:48.201Z,9.63
2023-09-27T22:12:53.212Z,4.93
2023-09-27T22:15:59.494Z,6.67
2023-09-27T22:19:02.841Z,11.43
2023-09-27T22:22:08.372Z,4.63
2023-09-27T22:25:14.257Z,7.17
2023-09-27T22:28:20.116Z,6.47
2023-09-27T22:31:31.413Z,9.57
2023-09-27T22:34:38.435Z,7.73
2023-09-27T22:37:45.146Z,6.63
2023-09-27T22:40:48.483Z,9.13
2023-09-27T22:43:51.785Z,5.23
2023-09-27T22:46:55.364Z,11.10
2023-09-27T22:49:58.202Z,6.47
2023-09-27T22:53:05.396Z,7.43
2023-09-27T22:56:08.285Z,9.93
2023-09-27T22:59:11.337Z,5.57
2023-09-27T23:02:14.480Z,7.17
2023-09-27T23:05:33.536Z,5.07
2023-09-27T23:08:39.098Z,8.33
2023-09-27T23:11:42.077Z,6.17
2023-09-27T23:14:58.744Z,6.53
2023-09-27T23:18:01.956Z,8.23
2023-09-27T23:21:18.903Z,8.30
2023-09-27T23:24:43.932Z,7.40
2023-09-27T23:27:45.775Z,6.37
2023-09-27T23:30:51.214Z,5.93
2023-09-27T23:33:53.287Z,6.27
2023-09-27T23:37:06.552Z,8.77
2023-09-27T23:40:15.463Z,6.37
2023-09-27T23:43:22.201Z,7.00
2023-09-27T23:46:24.913Z,10.63
2023-09-27T23:49:31.870Z,9.73
2023-09-27T23:52:35.640Z,7.90
2023-09-27T23:55:42.877Z,7.07
2023-09-27T23:58:46.304Z,9.47
